Terminal Aerodrome Forecast
Issued by NWS

Home | Current Version | Previous Version | Text Only | Print | Product List | Glossary On
Versions: 1 2 3 4 5 6 7 8 9 10 11 12 13 14 15 16 17 18 19 20 21 22
000
FTUS43 KLSX 210103 AAA
TAFSUS
TAF AMD
KSUS 210103Z 2101/2124 VRB03KT P6SM SCT035
      TEMPO 2101/2102 4SM BR
     FM210200 17007KT P6SM SCT060
     FM210600 18006KT P6SM FEW200 WS020/22035KT
     FM211400 19007KT P6SM FEW250=

USA.gov is the U.S. government's official web portal to all federal, state and local government web resources and services.